Time;durP1;ratioP1;P1;durP2;ratioP2;P2;SDS_P1;SDS_P2;PMS_P1;PMS_P2;Temp;Humidity;BMP_temperature;BMP_pressure;BME280_temperature;BME280_humidity;BME280_pressure;Samples;Min_cycle;Max_cycle;Signal;HPM_P1;HPM_P2
2023/06/16 00:01:09;;;;;;;10.33;8.70;;;;;;;;;;4955271;29;20234;-85
2023/06/16 00:03:38;;;;;;;13.63;9.20;;;;;;;;;;4955050;28;20203;-86
2023/06/16 00:06:12;;;;;;;10.37;9.27;;;;;;;;;;4954947;29;20286;-86
2023/06/16 00:08:39;;;;;;;9.97;9.00;;;;;;;;;;4954798;29;20205;-86
2023/06/16 00:11:06;;;;;;;10.17;9.17;;;;;;;;;;4954764;28;20257;-85
2023/06/16 00:13:33;;;;;;;10.10;8.90;;;;;;;;;;4955133;29;20250;-85
2023/06/16 00:16:01;;;;;;;10.20;9.20;;;;;;;;;;4955178;29;20307;-85
2023/06/16 00:18:29;;;;;;;12.03;9.30;;;;;;;;;;4954920;28;20258;-85
2023/06/16 00:21:01;;;;;;;10.97;9.07;;;;;;;;;;4954492;28;20258;-85
2023/06/16 00:23:28;;;;;;;10.33;9.33;;;;;;;;;;4954969;28;20231;-86
2023/06/16 00:25:56;;;;;;;11.10;9.37;;;;;;;;;;4954839;28;20199;-86
2023/06/16 00:28:23;;;;;;;15.60;9.07;;;;;;;;;;4954367;28;20642;-86
2023/06/16 00:30:50;;;;;;;10.00;8.70;;;;;;;;;;4953671;28;20766;-85
2023/06/16 00:33:18;;;;;;;10.13;8.43;;;;;;;;;;4954090;28;20231;-85
2023/06/16 00:35:45;;;;;;;10.37;9.23;;;;;;;;;;4954321;28;20282;-86
2023/06/16 00:38:13;;;;;;;10.87;9.20;;;;;;;;;;4954332;28;20652;-86
2023/06/16 00:40:40;;;;;;;10.77;9.43;;;;;;;;;;4954035;28;20222;-85
2023/06/16 00:43:08;;;;;;;13.83;10.20;;;;;;;;;;4954527;28;20323;-86
2023/06/16 00:45:35;;;;;;;10.00;8.70;;;;;;;;;;4954201;28;20227;-85
2023/06/16 00:48:02;;;;;;;10.40;9.10;;;;;;;;;;4954650;28;20278;-85
2023/06/16 00:50:30;;;;;;;12.70;10.00;;;;;;;;;;4954065;28;20803;-85
2023/06/16 00:52:57;;;;;;;11.10;10.00;;;;;;;;;;4954139;28;20290;-86
2023/06/16 00:55:26;;;;;;;11.20;9.40;;;;;;;;;;4954213;28;20207;-86
2023/06/16 00:57:54;;;;;;;11.33;9.67;;;;;;;;;;4954106;28;20214;-86
2023/06/16 01:00:21;;;;;;;11.00;8.93;;;;;;;;;;4954416;28;20203;-86
2023/06/16 01:02:50;;;;;;;10.67;9.60;;;;;;;;;;4954338;28;20286;-86
2023/06/16 01:05:19;;;;;;;11.30;9.53;;;;;;;;;;4953867;28;20203;-86
2023/06/16 01:07:50;;;;;;;12.33;10.10;;;;;;;;;;4954164;28;20187;-86
2023/06/16 01:10:19;;;;;;;11.60;10.40;;;;;;;;;;4953783;29;20314;-86
2023/06/16 01:12:51;;;;;;;11.10;10.00;;;;;;;;;;4954203;29;20199;-85
2023/06/16 01:15:20;;;;;;;10.53;9.43;;;;;;;;;;4953994;28;20306;-86
2023/06/16 01:17:48;;;;;;;10.50;9.40;;;;;;;;;;4953862;29;20745;-86
2023/06/16 01:20:19;;;;;;;10.53;9.30;;;;;;;;;;4953910;29;20207;-86
2023/06/16 01:22:55;;;;;;;12.73;9.90;;;;;;;;;;4959125;28;20637;-86
2023/06/16 01:25:24;;;;;;;14.47;10.33;;;;;;;;;;4973183;28;20293;-86
2023/06/16 01:27:52;;;;;;;12.53;11.07;;;;;;;;;;4973517;28;20205;-85
2023/06/16 01:30:21;;;;;;;11.83;10.53;;;;;;;;;;4973026;28;20240;-86
2023/06/16 01:32:49;;;;;;;14.33;10.90;;;;;;;;;;4958252;28;20203;-85
2023/06/16 01:35:17;;;;;;;12.10;10.80;;;;;;;;;;4942687;29;20254;-85
2023/06/16 01:37:45;;;;;;;13.00;11.27;;;;;;;;;;4934349;29;20689;-86
2023/06/16 01:40:13;;;;;;;12.13;10.63;;;;;;;;;;4934631;29;20231;-86
2023/06/16 01:42:42;;;;;;;13.70;11.03;;;;;;;;;;4937904;29;20620;-86
2023/06/16 01:45:10;;;;;;;12.57;11.37;;;;;;;;;;4938632;29;20665;-85
2023/06/16 01:47:37;;;;;;;13.10;11.60;;;;;;;;;;4938309;29;20200;-86
2023/06/16 01:50:05;;;;;;;13.47;11.97;;;;;;;;;;4938739;29;20696;-85
2023/06/16 01:52:32;;;;;;;16.10;12.50;;;;;;;;;;4938241;29;20290;-86
2023/06/16 01:54:59;;;;;;;13.37;11.97;;;;;;;;;;4938192;29;20199;-85
2023/06/16 01:57:28;;;;;;;15.73;12.60;;;;;;;;;;4938015;29;20934;-86
2023/06/16 01:59:58;;;;;;;14.60;12.60;;;;;;;;;;4938381;29;20629;-86
2023/06/16 02:02:27;;;;;;;13.63;12.07;;;;;;;;;;4937835;29;20286;-87
2023/06/16 02:04:54;;;;;;;13.27;11.97;;;;;;;;;;4938273;29;20290;-85
2023/06/16 02:07:23;;;;;;;14.57;12.83;;;;;;;;;;4938088;29;20227;-85
2023/06/16 02:09:51;;;;;;;13.57;12.10;;;;;;;;;;4937245;29;20235;-85
2023/06/16 02:12:18;;;;;;;13.90;12.50;;;;;;;;;;4938168;29;20335;-85
2023/06/16 02:14:48;;;;;;;13.53;12.13;;;;;;;;;;4938050;29;20286;-86
2023/06/16 02:17:16;;;;;;;13.87;12.57;;;;;;;;;;4937736;29;20371;-85
2023/06/16 02:19:44;;;;;;;13.87;12.43;;;;;;;;;;4937825;29;20230;-86
2023/06/16 02:22:11;;;;;;;13.93;12.63;;;;;;;;;;4937665;29;20192;-86
2023/06/16 02:24:38;;;;;;;15.83;12.60;;;;;;;;;;4937880;29;20231;-85
2023/06/16 02:27:06;;;;;;;14.90;13.40;;;;;;;;;;4937717;29;20204;-85
2023/06/16 02:29:33;;;;;;;15.73;12.63;;;;;;;;;;4937341;29;20728;-85
2023/06/16 02:32:00;;;;;;;14.50;13.07;;;;;;;;;;4937392;29;20752;-85
2023/06/16 02:34:29;;;;;;;18.23;14.27;;;;;;;;;;4937925;29;20379;-86
2023/06/16 02:36:56;;;;;;;16.20;14.50;;;;;;;;;;4937458;29;20224;-85
2023/06/16 02:39:23;;;;;;;17.17;14.87;;;;;;;;;;4937677;29;20199;-86
2023/06/16 02:41:50;;;;;;;17.27;14.97;;;;;;;;;;4937450;29;20291;-85
2023/06/16 02:44:17;;;;;;;18.57;14.67;;;;;;;;;;4937367;29;20235;-85
2023/06/16 02:46:45;;;;;;;16.43;14.73;;;;;;;;;;4936836;29;20294;-85
2023/06/16 02:49:12;;;;;;;18.93;16.67;;;;;;;;;;4937574;29;20294;-85
2023/06/16 02:51:41;;;;;;;17.93;15.73;;;;;;;;;;4937033;29;20227;-86
2023/06/16 02:54:09;;;;;;;16.90;15.17;;;;;;;;;;4935984;29;20200;-84
2023/06/16 02:56:36;;;;;;;19.40;16.20;;;;;;;;;;4937370;29;20242;-85
2023/06/16 02:59:03;;;;;;;17.63;15.77;;;;;;;;;;4937541;29;20219;-85
2023/06/16 03:01:31;;;;;;;17.23;15.53;;;;;;;;;;4936750;29;20291;-86
2023/06/16 03:03:58;;;;;;;18.67;16.87;;;;;;;;;;4936717;29;20294;-86
2023/06/16 03:06:29;;;;;;;18.87;16.87;;;;;;;;;;4937220;29;20206;-85
2023/06/16 03:08:58;;;;;;;17.97;16.10;;;;;;;;;;4937123;29;20290;-86
2023/06/16 03:11:25;;;;;;;18.50;16.40;;;;;;;;;;4936880;29;20226;-85
2023/06/16 03:13:52;;;;;;;19.27;16.47;;;;;;;;;;4936596;29;20285;-84
2023/06/16 03:16:20;;;;;;;18.67;16.70;;;;;;;;;;4953536;28;20342;-85
2023/06/16 03:18:48;;;;;;;18.77;16.87;;;;;;;;;;4956351;29;20195;-85
2023/06/16 03:21:16;;;;;;;18.53;16.73;;;;;;;;;;4956059;29;20203;-86
2023/06/16 03:23:43;;;;;;;19.23;17.20;;;;;;;;;;4955969;29;20199;-86
2023/06/16 03:26:12;;;;;;;19.90;17.93;;;;;;;;;;4955701;29;20199;-85
2023/06/16 03:28:39;;;;;;;21.47;19.03;;;;;;;;;;4955782;28;20638;-85
2023/06/16 03:31:08;;;;;;;20.50;18.37;;;;;;;;;;4955435;29;20426;-85
2023/06/16 03:33:35;;;;;;;20.20;18.10;;;;;;;;;;4955703;28;20231;-86
2023/06/16 03:36:02;;;;;;;20.00;18.00;;;;;;;;;;4955841;28;20219;-85
2023/06/16 03:38:29;;;;;;;22.53;19.03;;;;;;;;;;4955493;29;20231;-85
2023/06/16 03:40:56;;;;;;;22.40;20.10;;;;;;;;;;4955001;28;20213;-85
2023/06/16 03:43:25;;;;;;;24.43;20.47;;;;;;;;;;4955448;29;20241;-84
2023/06/16 03:45:52;;;;;;;23.23;20.63;;;;;;;;;;4955099;29;20245;-86
2023/06/16 03:48:19;;;;;;;21.77;19.50;;;;;;;;;;4955103;28;20294;-85
2023/06/16 03:50:47;;;;;;;23.40;20.63;;;;;;;;;;4954756;28;20294;-85
2023/06/16 03:53:14;;;;;;;23.67;21.27;;;;;;;;;;4955254;28;20203;-85
2023/06/16 03:55:41;;;;;;;25.47;21.50;;;;;;;;;;4955130;29;20293;-85
2023/06/16 03:58:08;;;;;;;22.20;19.90;;;;;;;;;;4954917;28;20207;-85
2023/06/16 04:00:37;;;;;;;24.50;22.00;;;;;;;;;;4954977;29;20195;-85
2023/06/16 04:03:04;;;;;;;25.23;21.73;;;;;;;;;;4955170;28;20195;-85
2023/06/16 04:05:32;;;;;;;26.00;22.07;;;;;;;;;;4955075;28;20293;-85
2023/06/16 04:07:59;;;;;;;24.83;21.77;;;;;;;;;;4954670;28;20227;-85
2023/06/16 04:10:27;;;;;;;24.27;21.73;;;;;;;;;;4955083;28;20290;-85
2023/06/16 04:12:54;;;;;;;25.70;22.87;;;;;;;;;;4954698;29;20305;-85
2023/06/16 04:15:22;;;;;;;24.37;21.97;;;;;;;;;;4955212;29;20686;-86
2023/06/16 04:17:50;;;;;;;24.53;21.77;;;;;;;;;;4954719;28;20318;-86
2023/06/16 04:20:17;;;;;;;23.43;21.00;;;;;;;;;;4955065;28;20222;-85
2023/06/16 04:22:44;;;;;;;23.40;20.90;;;;;;;;;;4954684;29;20230;-85
2023/06/16 04:25:12;;;;;;;25.17;22.23;;;;;;;;;;4955565;29;20242;-85
2023/06/16 04:27:39;;;;;;;24.67;22.23;;;;;;;;;;4954373;29;20687;-86
2023/06/16 04:30:07;;;;;;;23.50;21.10;;;;;;;;;;4954436;29;20290;-85
2023/06/16 04:32:35;;;;;;;24.83;22.23;;;;;;;;;;4954448;29;20326;-85
2023/06/16 04:35:04;;;;;;;24.83;22.17;;;;;;;;;;4954410;28;20199;-85
2023/06/16 04:37:31;;;;;;;26.17;23.07;;;;;;;;;;4954522;28;20199;-85
2023/06/16 04:39:59;;;;;;;24.50;21.90;;;;;;;;;;4954402;29;20209;-85
2023/06/16 04:42:26;;;;;;;25.33;22.43;;;;;;;;;;4954132;29;20664;-86
2023/06/16 04:44:53;;;;;;;25.03;22.53;;;;;;;;;;4954567;29;20672;-85
2023/06/16 04:47:20;;;;;;;26.50;22.77;;;;;;;;;;4954430;29;20206;-86
2023/06/16 04:49:47;;;;;;;26.30;23.63;;;;;;;;;;4954478;29;20621;-87
2023/06/16 04:52:16;;;;;;;25.67;22.47;;;;;;;;;;4954630;29;20711;-86
2023/06/16 04:54:43;;;;;;;25.43;22.80;;;;;;;;;;4954637;29;20258;-85
2023/06/16 04:57:10;;;;;;;25.47;22.77;;;;;;;;;;4953994;28;20207;-86
2023/06/16 04:59:38;;;;;;;28.67;22.50;;;;;;;;;;4954452;28;20289;-86
2023/06/16 05:02:05;;;;;;;27.43;24.60;;;;;;;;;;4954458;28;20235;-85
2023/06/16 05:04:35;;;;;;;27.13;24.23;;;;;;;;;;4953460;29;20227;-85
2023/06/16 05:07:03;;;;;;;26.67;23.90;;;;;;;;;;4954698;29;20206;-86
2023/06/16 05:09:32;;;;;;;27.97;25.07;;;;;;;;;;4941498;29;20204;-87
2023/06/16 05:11:59;;;;;;;27.37;24.40;;;;;;;;;;4935397;29;20704;-87
2023/06/16 05:14:26;;;;;;;28.30;24.73;;;;;;;;;;4938175;29;20191;-85
2023/06/16 05:16:54;;;;;;;38.80;26.00;;;;;;;;;;4954106;29;20331;-87
2023/06/16 05:19:21;;;;;;;29.60;24.67;;;;;;;;;;4955286;29;20286;-88
2023/06/16 05:21:48;;;;;;;28.27;25.00;;;;;;;;;;4955474;29;20215;-87
2023/06/16 05:24:15;;;;;;;27.60;24.40;;;;;;;;;;4954867;28;20249;-89
2023/06/16 05:26:44;;;;;;;25.97;23.30;;;;;;;;;;4954778;29;20302;-88
2023/06/16 05:29:11;;;;;;;29.03;23.80;;;;;;;;;;4955083;29;20772;-86
2023/06/16 05:31:38;;;;;;;27.20;24.30;;;;;;;;;;4954929;28;20210;-87
2023/06/16 05:34:06;;;;;;;25.97;23.30;;;;;;;;;;4954816;28;20290;-90
2023/06/16 05:36:35;;;;;;;26.00;23.23;;;;;;;;;;4948297;28;20303;-87
2023/06/16 05:39:02;;;;;;;25.77;23.17;;;;;;;;;;4940936;28;20263;-88
2023/06/16 05:41:30;;;;;;;25.47;22.87;;;;;;;;;;4935780;29;20204;-87
2023/06/16 05:43:59;;;;;;;24.60;22.20;;;;;;;;;;4941228;29;20202;-86
2023/06/16 05:46:26;;;;;;;26.17;23.33;;;;;;;;;;4942055;29;20632;-85
2023/06/16 05:48:54;;;;;;;23.23;20.90;;;;;;;;;;4952860;28;20669;-84
2023/06/16 05:51:23;;;;;;;24.37;21.70;;;;;;;;;;4953588;28;20669;-85
2023/06/16 05:53:50;;;;;;;24.00;21.47;;;;;;;;;;4953701;29;20243;-85
2023/06/16 05:56:17;;;;;;;25.13;22.47;;;;;;;;;;4953102;29;20235;-85
2023/06/16 05:58:44;;;;;;;24.90;22.10;;;;;;;;;;4953444;29;20231;-84
2023/06/16 06:01:14;;;;;;;23.95;21.42;;;;;;;;;;4953784;29;20286;-85
2023/06/16 06:03:45;;;;;;;22.67;20.25;;;;;;;;;;4953124;29;20227;-85
2023/06/16 06:06:13;;;;;;;20.65;18.45;;;;;;;;;;4953565;29;20199;-85
2023/06/16 06:08:40;;;;;;;21.33;19.02;;;;;;;;;;4953210;29;20207;-86
2023/06/16 06:11:08;;;;;;;19.85;17.90;;;;;;;;;;4953681;29;20298;-86
2023/06/16 06:13:35;;;;;;;18.70;16.60;;;;;;;;;;4953648;29;20326;-85
2023/06/16 06:16:02;;;;;;;18.00;16.17;;;;;;;;;;4953115;29;20223;-86
2023/06/16 06:18:31;;;;;;;17.80;15.95;;;;;;;;;;4953915;29;20288;-86
2023/06/16 06:20:58;;;;;;;18.33;16.42;;;;;;;;;;4953440;29;20290;-86
2023/06/16 06:23:25;;;;;;;16.17;14.48;;;;;;;;;;4953173;29;20199;-86
2023/06/16 06:25:52;;;;;;;17.08;14.57;;;;;;;;;;4953294;29;20699;-87
2023/06/16 06:28:19;;;;;;;17.77;14.65;;;;;;;;;;4954315;28;20234;-85
2023/06/16 06:30:47;;;;;;;16.10;14.68;;;;;;;;;;4957134;29;20676;-85
2023/06/16 06:33:14;;;;;;;18.38;16.35;;;;;;;;;;4956394;29;20226;-85
2023/06/16 06:35:42;;;;;;;16.10;14.60;;;;;;;;;;4956535;29;20294;-85
2023/06/16 06:38:10;;;;;;;14.57;13.15;;;;;;;;;;4956274;29;20849;-84
2023/06/16 06:40:37;;;;;;;15.50;13.93;;;;;;;;;;4956535;29;20302;-86
2023/06/16 06:43:04;;;;;;;15.73;14.20;;;;;;;;;;4956615;29;20226;-85
2023/06/16 06:45:32;;;;;;;14.45;12.95;;;;;;;;;;4956792;29;20254;-85
2023/06/16 06:47:59;;;;;;;14.82;12.50;;;;;;;;;;4956547;29;20294;-86
2023/06/16 06:50:26;;;;;;;14.93;13.35;;;;;;;;;;4956564;28;20629;-86
2023/06/16 06:52:54;;;;;;;15.20;13.75;;;;;;;;;;4955967;28;20790;-87
2023/06/16 06:55:22;;;;;;;17.98;12.50;;;;;;;;;;4956866;29;20215;-86
2023/06/16 06:57:50;;;;;;;13.85;12.45;;;;;;;;;;4956500;29;20278;-86
2023/06/16 07:00:18;;;;;;;12.90;11.60;;;;;;;;;;4956272;28;20206;-85
2023/06/16 07:02:45;;;;;;;14.20;12.55;;;;;;;;;;4956484;29;20270;-87
2023/06/16 07:05:12;;;;;;;13.68;12.27;;;;;;;;;;4956040;29;20585;-87
2023/06/16 07:07:39;;;;;;;13.20;11.93;;;;;;;;;;4955811;29;20282;-84
2023/06/16 07:10:10;;;;;;;14.15;12.60;;;;;;;;;;4956040;28;20195;-85
2023/06/16 07:12:38;;;;;;;12.68;11.52;;;;;;;;;;4956016;29;20231;-86
2023/06/16 07:15:05;;;;;;;16.52;12.25;;;;;;;;;;4956286;29;20262;-85
2023/06/16 07:17:34;;;;;;;11.85;10.73;;;;;;;;;;4955494;29;20326;-86
2023/06/16 07:20:01;;;;;;;11.73;10.52;;;;;;;;;;4956071;28;20191;-86
2023/06/16 07:22:28;;;;;;;11.45;10.40;;;;;;;;;;4955981;29;20282;-86
2023/06/16 07:24:55;;;;;;;11.23;10.23;;;;;;;;;;4955490;29;20206;-85
2023/06/16 07:27:24;;;;;;;14.15;11.48;;;;;;;;;;4955594;29;20201;-86
2023/06/16 07:29:51;;;;;;;10.23;9.27;;;;;;;;;;4955848;29;20250;-87
2023/06/16 07:32:18;;;;;;;11.55;10.45;;;;;;;;;;4955937;29;20227;-88
2023/06/16 07:34:46;;;;;;;11.35;10.20;;;;;;;;;;4956672;29;20238;-86
2023/06/16 07:37:13;;;;;;;12.05;11.00;;;;;;;;;;4953404;29;20196;-87
2023/06/16 07:39:41;;;;;;;10.98;9.70;;;;;;;;;;4936633;29;20214;-89
2023/06/16 07:42:08;;;;;;;11.35;9.73;;;;;;;;;;4936928;29;20235;-87
2023/06/16 07:44:36;;;;;;;12.48;10.27;;;;;;;;;;4936613;29;20196;-88
2023/06/16 07:47:04;;;;;;;10.82;9.77;;;;;;;;;;4937178;29;20642;-87
2023/06/16 07:49:32;;;;;;;11.95;10.52;;;;;;;;;;4937016;29;20777;-87
2023/06/16 07:51:59;;;;;;;12.80;9.73;;;;;;;;;;4936572;29;20235;-87
2023/06/16 07:54:26;;;;;;;13.77;9.90;;;;;;;;;;4936947;29;20212;-87
2023/06/16 07:56:54;;;;;;;9.90;8.35;;;;;;;;;;4936757;29;20214;-87
2023/06/16 07:59:21;;;;;;;12.13;10.70;;;;;;;;;;4936466;29;20214;-87
2023/06/16 08:01:50;;;;;;;11.77;10.68;;;;;;;;;;4936951;29;20222;-88
2023/06/16 08:04:17;;;;;;;13.35;10.20;;;;;;;;;;4936953;29;20211;-88
2023/06/16 08:06:44;;;;;;;12.30;10.50;;;;;;;;;;4936533;29;20196;-87
2023/06/16 08:09:12;;;;;;;11.43;10.25;;;;;;;;;;4936580;29;20244;-87
2023/06/16 08:11:39;;;;;;;11.35;9.55;;;;;;;;;;4936358;29;20255;-87
2023/06/16 08:14:07;;;;;;;13.50;9.93;;;;;;;;;;4936287;29;20224;-87
2023/06/16 08:16:34;;;;;;;10.52;9.45;;;;;;;;;;4954617;28;20720;-87
2023/06/16 08:19:02;;;;;;;10.77;9.68;;;;;;;;;;4957972;28;20211;-87
2023/06/16 08:21:30;;;;;;;14.15;9.88;;;;;;;;;;4955093;28;20379;-87
2023/06/16 08:23:57;;;;;;;11.88;9.75;;;;;;;;;;4955281;28;20191;-88
2023/06/16 08:26:25;;;;;;;10.55;9.45;;;;;;;;;;4961407;28;20282;-88
2023/06/16 08:28:52;;;;;;;11.98;9.15;;;;;;;;;;4960164;28;20315;-88
2023/06/16 08:31:20;;;;;;;16.60;11.05;;;;;;;;;;4947209;29;20222;-88
2023/06/16 08:33:47;;;;;;;12.15;9.75;;;;;;;;;;4938485;29;20218;-88
2023/06/16 08:36:16;;;;;;;11.98;10.10;;;;;;;;;;4935959;29;20733;-89
2023/06/16 08:38:43;;;;;;;11.13;10.02;;;;;;;;;;4936417;29;20218;-88
2023/06/16 08:41:11;;;;;;;13.52;11.05;;;;;;;;;;4936357;29;20290;-88
2023/06/16 08:43:38;;;;;;;10.45;9.38;;;;;;;;;;4936086;29;20692;-88
2023/06/16 08:46:08;;;;;;;14.05;11.52;;;;;;;;;;4935826;29;20199;-87
2023/06/16 08:48:35;;;;;;;13.73;11.52;;;;;;;;;;4935774;29;20203;-88
2023/06/16 08:51:03;;;;;;;11.15;10.02;;;;;;;;;;4935642;29;20203;-88
2023/06/16 08:53:33;;;;;;;10.32;9.32;;;;;;;;;;4936399;29;20232;-87
2023/06/16 08:56:02;;;;;;;10.27;9.20;;;;;;;;;;4935988;29;20203;-89
2023/06/16 08:58:30;;;;;;;15.10;10.20;;;;;;;;;;4936108;29;20196;-87
2023/06/16 09:00:58;;;;;;;13.05;10.52;;;;;;;;;;4935593;29;20203;-89
2023/06/16 09:03:26;;;;;;;14.55;13.02;;;;;;;;;;4935289;29;20291;-88
2023/06/16 09:05:54;;;;;;;12.65;11.35;;;;;;;;;;4935544;29;20192;-88
2023/06/16 09:08:21;;;;;;;12.75;11.45;;;;;;;;;;4935487;29;20282;-88
2023/06/16 09:10:54;;;;;;;13.32;12.00;;;;;;;;;;4935843;29;20199;-88
2023/06/16 09:13:22;;;;;;;14.05;11.88;;;;;;;;;;4935993;29;20231;-89
2023/06/16 09:15:50;;;;;;;12.02;10.82;;;;;;;;;;4948771;29;20264;-86
2023/06/16 09:18:18;;;;;;;14.38;12.98;;;;;;;;;;4954047;29;20297;-90
2023/06/16 09:20:50;;;;;;;12.30;10.90;;;;;;;;;;4953608;28;20230;-84
2023/06/16 09:23:27;;;;;;;14.02;12.52;;;;;;;;;;4953406;29;20293;-88
2023/06/16 09:25:55;;;;;;;13.18;11.85;;;;;;;;;;4954380;29;20207;-89
2023/06/16 09:28:34;;;;;;;14.40;11.07;;;;;;;;;;4955346;29;20297;-89
2023/06/16 09:31:05;;;;;;;12.70;11.38;;;;;;;;;;4946439;29;20196;-90
2023/06/16 09:33:33;;;;;;;14.15;11.88;;;;;;;;;;4946879;29;20318;-88
2023/06/16 09:36:00;;;;;;;14.52;12.32;;;;;;;;;;4944279;29;20687;-89
2023/06/16 09:38:28;;;;;;;12.32;11.13;;;;;;;;;;4938351;29;20287;-89
2023/06/16 09:41:08;;;;;;;15.00;13.50;;;;;;;;;;4936031;29;20196;-89
2023/06/16 09:43:35;;;;;;;16.27;14.77;;;;;;;;;;4936603;29;21475;-89
2023/06/16 09:46:02;;;;;;;15.63;14.20;;;;;;;;;;4936512;29;20202;-89
2023/06/16 09:48:35;;;;;;;16.30;14.65;;;;;;;;;;4935935;29;20227;-89
2023/06/16 09:51:08;;;;;;;13.20;12.00;;;;;;;;;;4948631;28;20286;-88
2023/06/16 09:53:37;;;;;;;12.15;11.05;;;;;;;;;;4954747;29;20227;-90
2023/06/16 09:56:07;;;;;;;14.35;13.00;;;;;;;;;;4954914;29;20230;-89
2023/06/16 09:58:34;;;;;;;15.15;13.50;;;;;;;;;;4955335;29;20215;-89
2023/06/16 10:01:01;;;;;;;13.43;12.23;;;;;;;;;;4954810;29;20262;-90
2023/06/16 10:03:30;;;;;;;12.95;11.55;;;;;;;;;;4958202;28;20600;-90
2023/06/16 10:05:59;;;;;;;10.70;9.70;;;;;;;;;;4958807;29;20230;-89
2023/06/16 10:08:27;;;;;;;13.02;11.73;;;;;;;;;;4942930;29;20204;-89
2023/06/16 10:10:54;;;;;;;11.63;10.40;;;;;;;;;;4941659;29;20244;-93
2023/06/16 10:13:23;;;;;;;10.75;9.32;;;;;;;;;;4956973;29;20700;-91
2023/06/16 10:15:51;;;;;;;10.52;9.43;;;;;;;;;;4939586;29;20286;-88
2023/06/16 10:18:19;;;;;;;12.75;11.43;;;;;;;;;;4939653;29;20196;-89
2023/06/16 10:20:48;;;;;;;13.48;12.18;;;;;;;;;;4939842;29;20659;-94
2023/06/16 10:23:15;;;;;;;11.68;10.68;;;;;;;;;;4939658;29;20673;-95
2023/06/16 10:25:42;;;;;;;13.38;10.45;;;;;;;;;;4939712;29;20673;-96
2023/06/16 10:28:13;;;;;;;10.18;9.15;;;;;;;;;;4941255;29;20196;-95
2023/06/16 10:30:42;;;;;;;13.05;11.70;;;;;;;;;;4940887;29;20196;-95
2023/06/16 10:33:19;;;;;;;11.40;10.20;;;;;;;;;;4939947;29;20212;-90
2023/06/16 10:35:53;;;;;;;11.95;10.73;;;;;;;;;;4939566;29;20255;-96
2023/06/16 10:38:21;;;;;;;13.98;10.40;;;;;;;;;;4957197;28;20233;-94
2023/06/16 10:40:50;;;;;;;12.18;10.93;;;;;;;;;;4942788;28;20571;-92
2023/06/16 10:43:25;;;;;;;12.38;11.23;;;;;;;;;;4939744;29;20788;-95
2023/06/16 10:46:07;;;;;;;11.73;10.63;;;;;;;;;;4940980;29;20215;-96
2023/06/16 10:48:56;;;;;;;10.63;9.60;;;;;;;;;;4947284;29;20279;-96
2023/06/16 10:51:38;;;;;;;9.00;8.20;;;;;;;;;;4958993;29;20203;-95
2023/06/16 10:54:05;;;;;;;11.20;10.13;;;;;;;;;;4946811;28;20318;-94
2023/06/16 10:56:58;;;;;;;11.65;9.20;;;;;;;;;;4948909;29;20291;-92
2023/06/16 10:59:25;;;;;;;12.65;9.38;;;;;;;;;;4951102;29;20239;-93
2023/06/16 11:01:56;;;;;;;11.05;10.05;;;;;;;;;;4948462;29;20755;-93
2023/06/16 11:04:26;;;;;;;10.60;9.52;;;;;;;;;;4949411;29;20208;-92
2023/06/16 11:07:09;;;;;;;12.02;9.70;;;;;;;;;;4939559;29;20235;-93
2023/06/16 11:09:36;;;;;;;10.13;9.10;;;;;;;;;;4940601;29;20196;-89
2023/06/16 11:12:04;;;;;;;9.52;8.63;;;;;;;;;;4938221;29;20207;-91
2023/06/16 11:14:31;;;;;;;11.35;9.23;;;;;;;;;;4947481;29;20275;-88
2023/06/16 11:16:58;;;;;;;12.13;10.93;;;;;;;;;;4957644;29;20662;-90
2023/06/16 11:19:27;;;;;;;11.73;10.20;;;;;;;;;;4957759;29;20294;-90
2023/06/16 11:21:54;;;;;;;11.13;9.20;;;;;;;;;;4956058;29;20195;-91
2023/06/16 11:24:21;;;;;;;11.75;9.80;;;;;;;;;;4958239;28;20293;-89
2023/06/16 11:26:48;;;;;;;10.35;9.38;;;;;;;;;;4956935;28;20238;-90
2023/06/16 11:29:16;;;;;;;11.85;10.52;;;;;;;;;;4967794;28;20205;-92
2023/06/16 11:31:43;;;;;;;10.68;9.57;;;;;;;;;;4969920;28;20199;-89
2023/06/16 11:34:11;;;;;;;11.23;9.48;;;;;;;;;;4967700;28;20284;-89
2023/06/16 11:36:39;;;;;;;15.63;10.23;;;;;;;;;;4965863;28;20903;-91
2023/06/16 11:39:11;;;;;;;11.05;10.05;;;;;;;;;;4951255;29;20712;-90
2023/06/16 11:41:39;;;;;;;11.35;9.35;;;;;;;;;;4958787;28;20722;-91
2023/06/16 11:44:06;;;;;;;10.25;9.25;;;;;;;;;;4973810;28;20227;-87
2023/06/16 11:46:34;;;;;;;11.10;8.75;;;;;;;;;;4956494;28;20210;-91
2023/06/16 11:49:02;;;;;;;12.63;9.20;;;;;;;;;;4952993;28;20796;-90
2023/06/16 11:51:30;;;;;;;10.27;9.20;;;;;;;;;;4955316;28;20293;-88
2023/06/16 11:54:01;;;;;;;10.63;9.45;;;;;;;;;;4958295;28;20222;-90
2023/06/16 11:56:28;;;;;;;11.35;9.00;;;;;;;;;;4949420;28;20226;-89
2023/06/16 11:58:55;;;;;;;9.38;8.48;;;;;;;;;;4948566;28;20290;-87
2023/06/16 12:01:25;;;;;;;8.93;8.00;;;;;;;;;;4942624;29;20230;-88
2023/06/16 12:03:52;;;;;;;8.90;8.07;;;;;;;;;;4949318;29;20198;-89
2023/06/16 12:06:20;;;;;;;10.35;9.15;;;;;;;;;;4947858;29;20552;-89
2023/06/16 12:08:48;;;;;;;12.13;8.60;;;;;;;;;;4945989;29;20290;-88
2023/06/16 12:11:21;;;;;;;10.27;9.27;;;;;;;;;;4938758;29;20232;-89
2023/06/16 12:13:48;;;;;;;9.98;8.77;;;;;;;;;;4945515;29;20222;-87
2023/06/16 12:16:16;;;;;;;10.18;9.25;;;;;;;;;;4955393;29;20326;-89
2023/06/16 12:18:43;;;;;;;10.02;9.13;;;;;;;;;;4950143;29;20298;-90
2023/06/16 12:21:16;;;;;;;9.60;8.73;;;;;;;;;;4956245;29;20226;-88
2023/06/16 12:23:43;;;;;;;9.52;8.55;;;;;;;;;;4959290;28;20213;-88
2023/06/16 12:26:26;;;;;;;8.65;7.90;;;;;;;;;;4940907;28;20192;-90
2023/06/16 12:28:55;;;;;;;10.05;9.05;;;;;;;;;;4954459;28;20206;-90
2023/06/16 12:31:26;;;;;;;9.30;8.50;;;;;;;;;;4950350;28;20267;-90
2023/06/16 12:33:54;;;;;;;11.30;8.52;;;;;;;;;;4955589;29;20218;-88
2023/06/16 12:36:21;;;;;;;9.40;8.55;;;;;;;;;;4962851;28;20591;-89
2023/06/16 12:38:49;;;;;;;9.13;8.00;;;;;;;;;;4952928;29;20250;-90
2023/06/16 12:41:17;;;;;;;9.85;7.72;;;;;;;;;;4952719;28;20287;-90
2023/06/16 12:43:47;;;;;;;9.35;8.45;;;;;;;;;;4956459;28;20302;-88
2023/06/16 12:46:16;;;;;;;8.48;7.63;;;;;;;;;;4956209;29;20214;-89
2023/06/16 12:48:44;;;;;;;9.35;8.27;;;;;;;;;;4953985;29;20294;-91
2023/06/16 12:51:11;;;;;;;10.35;8.10;;;;;;;;;;4948056;28;20262;-89
2023/06/16 12:53:42;;;;;;;12.40;8.45;;;;;;;;;;4950102;28;20293;-90
2023/06/16 12:56:11;;;;;;;10.25;8.65;;;;;;;;;;4941896;29;20242;-87
2023/06/16 12:58:39;;;;;;;9.60;8.55;;;;;;;;;;4953843;28;20223;-91
2023/06/16 13:01:08;;;;;;;12.38;8.85;;;;;;;;;;4942245;29;20210;-89
2023/06/16 13:03:40;;;;;;;9.95;8.95;;;;;;;;;;4951281;29;20199;-91
2023/06/16 13:06:07;;;;;;;9.00;8.10;;;;;;;;;;4950789;29;20564;-91
2023/06/16 13:08:34;;;;;;;9.85;7.78;;;;;;;;;;4942351;28;20255;-86
2023/06/16 13:11:02;;;;;;;13.55;8.63;;;;;;;;;;4957271;28;20298;-89
2023/06/16 13:13:29;;;;;;;9.63;8.20;;;;;;;;;;4961001;28;20218;-89
2023/06/16 13:15:56;;;;;;;10.38;9.27;;;;;;;;;;4954727;28;20744;-88
2023/06/16 13:18:23;;;;;;;10.75;9.55;;;;;;;;;;4955341;29;20743;-90
2023/06/16 13:20:52;;;;;;;10.80;9.52;;;;;;;;;;4947835;29;20203;-91
2023/06/16 13:23:21;;;;;;;10.00;8.65;;;;;;;;;;4955474;28;20195;-89
2023/06/16 13:25:49;;;;;;;11.85;9.27;;;;;;;;;;4954478;28;20217;-90
2023/06/16 13:28:16;;;;;;;10.75;9.65;;;;;;;;;;4941967;29;20207;-90
2023/06/16 13:30:44;;;;;;;9.82;8.85;;;;;;;;;;4947642;29;20209;-90
2023/06/16 13:33:11;;;;;;;10.20;9.15;;;;;;;;;;4950423;28;20203;-90
2023/06/16 13:35:38;;;;;;;10.10;8.73;;;;;;;;;;4937394;28;20259;-91
2023/06/16 13:38:07;;;;;;;13.88;9.00;;;;;;;;;;4939424;29;20235;-90
2023/06/16 13:40:35;;;;;;;9.80;8.82;;;;;;;;;;4940136;28;20199;-89
2023/06/16 13:43:02;;;;;;;10.02;9.13;;;;;;;;;;4952780;28;20730;-89
2023/06/16 13:45:29;;;;;;;10.95;9.85;;;;;;;;;;4958802;29;20199;-90
2023/06/16 13:47:57;;;;;;;10.60;9.65;;;;;;;;;;4957949;28;20211;-90
2023/06/16 13:50:24;;;;;;;10.00;8.75;;;;;;;;;;4958427;28;20203;-91
2023/06/16 13:52:51;;;;;;;10.30;9.40;;;;;;;;;;4973764;28;20227;-90
2023/06/16 13:55:20;;;;;;;10.05;9.15;;;;;;;;;;4950530;29;20780;-91
2023/06/16 13:57:47;;;;;;;10.00;9.18;;;;;;;;;;4940000;29;20574;-88
2023/06/16 14:00:15;;;;;;;9.70;8.90;;;;;;;;;;4940964;29;20306;-90
2023/06/16 14:02:42;;;;;;;9.55;8.75;;;;;;;;;;4949971;29;20192;-90
2023/06/16 14:05:10;;;;;;;10.38;8.65;;;;;;;;;;4958270;29;20225;-89
2023/06/16 14:07:37;;;;;;;10.07;9.15;;;;;;;;;;4945846;29;20188;-90
2023/06/16 14:10:05;;;;;;;10.35;9.10;;;;;;;;;;4956450;28;20572;-90
2023/06/16 14:12:33;;;;;;;9.77;8.82;;;;;;;;;;4978741;28;20262;-91
2023/06/16 14:15:00;;;;;;;9.40;8.52;;;;;;;;;;4978149;28;20296;-91
2023/06/16 14:17:28;;;;;;;9.18;8.40;;;;;;;;;;4977646;28;20325;-89
2023/06/16 14:19:55;;;;;;;9.40;8.60;;;;;;;;;;4977440;28;20297;-90
2023/06/16 14:22:23;;;;;;;8.85;8.02;;;;;;;;;;4963387;28;20219;-91
2023/06/16 14:24:50;;;;;;;9.13;8.27;;;;;;;;;;4955347;29;20203;-90
2023/06/16 14:27:17;;;;;;;9.30;8.35;;;;;;;;;;4951632;29;20211;-89
2023/06/16 14:29:45;;;;;;;8.88;7.97;;;;;;;;;;4944050;29;20283;-90